sensor_id;sensor_type;location;lat;lon;timestamp;pressure;altitude;pressure_sealevel;temperature;humidity
48390;BME280;34643;47.964;7.982;2022-12-20T00:03:16;97223.50;;;15.52;61.47
48390;BME280;34643;47.964;7.982;2022-12-20T00:08:17;97234.75;;;15.53;61.54
48390;BME280;34643;47.964;7.982;2022-12-20T00:13:17;97227.88;;;15.52;61.75
48390;BME280;34643;47.964;7.982;2022-12-20T00:18:17;97226.00;;;15.54;61.62
48390;BME280;34643;47.964;7.982;2022-12-20T00:23:18;97216.56;;;15.53;61.78
48390;BME280;34643;47.964;7.982;2022-12-20T00:28:18;97222.31;;;15.58;61.65
48390;BME280;34643;47.964;7.982;2022-12-20T00:33:19;97219.81;;;15.56;61.79
48390;BME280;34643;47.964;7.982;2022-12-20T00:38:19;97219.81;;;15.56;61.62
48390;BME280;34643;47.964;7.982;2022-12-20T00:43:19;97204.09;;;15.58;61.74
48390;BME280;34643;47.964;7.982;2022-12-20T00:48:20;97205.03;;;15.57;61.98
48390;BME280;34643;47.964;7.982;2022-12-20T00:53:20;97205.75;;;15.59;62.09
48390;BME280;34643;47.964;7.982;2022-12-20T00:58:21;97218.78;;;15.59;61.87
48390;BME280;34643;47.964;7.982;2022-12-20T01:03:21;97209.31;;;15.58;61.87
48390;BME280;34643;47.964;7.982;2022-12-20T01:08:22;97198.13;;;15.56;62.27
48390;BME280;34643;47.964;7.982;2022-12-20T01:13:23;97183.28;;;15.58;62.01
48390;BME280;34643;47.964;7.982;2022-12-20T01:18:24;97183.47;;;15.55;62.12
48390;BME280;34643;47.964;7.982;2022-12-20T01:23:24;97190.25;;;15.57;62.05
48390;BME280;34643;47.964;7.982;2022-12-20T01:28:24;97183.28;;;15.58;62.05
48390;BME280;34643;47.964;7.982;2022-12-20T01:33:25;97181.59;;;15.57;61.99
48390;BME280;34643;47.964;7.982;2022-12-20T01:38:25;97183.16;;;15.59;62.00
48390;BME280;34643;47.964;7.982;2022-12-20T01:43:46;97182.34;;;15.59;62.04
48390;BME280;34643;47.964;7.982;2022-12-20T01:49:20;97187.53;;;15.59;62.04
48390;BME280;34643;47.964;7.982;2022-12-20T01:54:16;97178.81;;;15.60;62.17
48390;BME280;34643;47.964;7.982;2022-12-20T01:59:18;97167.69;;;15.58;62.12
48390;BME280;34643;47.964;7.982;2022-12-20T02:04:18;97166.72;;;15.59;62.08
48390;BME280;34643;47.964;7.982;2022-12-20T02:09:18;97165.25;;;15.55;62.24
48390;BME280;34643;47.964;7.982;2022-12-20T02:19:31;97149.47;;;15.58;62.32
48390;BME280;34643;47.964;7.982;2022-12-20T02:29:39;97132.34;;;15.54;62.30
48390;BME280;34643;47.964;7.982;2022-12-20T02:34:45;97122.69;;;15.56;62.29
48390;BME280;34643;47.964;7.982;2022-12-20T02:39:46;97117.69;;;15.53;62.33
48390;BME280;34643;47.964;7.982;2022-12-20T02:44:49;97121.94;;;15.54;62.33
48390;BME280;34643;47.964;7.982;2022-12-20T02:50:09;97115.09;;;15.53;62.41
48390;BME280;34643;47.964;7.982;2022-12-20T02:55:10;97121.94;;;15.54;62.56
48390;BME280;34643;47.964;7.982;2022-12-20T03:00:12;97107.47;;;15.50;62.98
48390;BME280;34643;47.964;7.982;2022-12-20T03:05:13;97101.88;;;15.56;62.81
48390;BME280;34643;47.964;7.982;2022-12-20T03:10:15;97090.06;;;15.50;62.89
48390;BME280;34643;47.964;7.982;2022-12-20T03:15:15;97092.69;;;15.50;62.60
48390;BME280;34643;47.964;7.982;2022-12-20T03:20:16;97079.75;;;15.49;62.64
48390;BME280;34643;47.964;7.982;2022-12-20T03:25:16;97066.56;;;15.52;62.43
48390;BME280;34643;47.964;7.982;2022-12-20T03:30:17;97068.03;;;15.56;62.31
48390;BME280;34643;47.964;7.982;2022-12-20T03:35:18;97072.41;;;15.55;62.31
48390;BME280;34643;47.964;7.982;2022-12-20T03:40:19;97068.03;;;15.56;62.29
48390;BME280;34643;47.964;7.982;2022-12-20T03:45:20;97078.25;;;15.59;62.05
48390;BME280;34643;47.964;7.982;2022-12-20T03:50:21;97080.97;;;15.57;62.26
48390;BME280;34643;47.964;7.982;2022-12-20T03:55:22;97068.91;;;15.56;62.18
48390;BME280;34643;47.964;7.982;2022-12-20T04:00:23;97064.69;;;15.54;62.38
48390;BME280;34643;47.964;7.982;2022-12-20T04:05:26;97061.19;;;15.55;62.24
48390;BME280;34643;47.964;7.982;2022-12-20T04:10:27;97059.50;;;15.54;62.40
48390;BME280;34643;47.964;7.982;2022-12-20T04:15:27;97064.78;;;15.52;62.35
48390;BME280;34643;47.964;7.982;2022-12-20T04:20:27;97060.44;;;15.53;62.29
48390;BME280;34643;47.964;7.982;2022-12-20T04:25:41;97059.59;;;15.52;62.38
48390;BME280;34643;47.964;7.982;2022-12-20T04:30:42;97058.69;;;15.53;62.49
48390;BME280;34643;47.964;7.982;2022-12-20T04:35:43;97047.53;;;15.51;62.48
48390;BME280;34643;47.964;7.982;2022-12-20T04:40:44;97035.44;;;15.50;62.60
48390;BME280;34643;47.964;7.982;2022-12-20T04:45:46;97032.84;;;15.50;62.44
48390;BME280;34643;47.964;7.982;2022-12-20T04:50:47;97031.91;;;15.51;62.45
48390;BME280;34643;47.964;7.982;2022-12-20T04:55:48;97030.78;;;15.55;62.45
48390;BME280;34643;47.964;7.982;2022-12-20T05:00:49;97034.13;;;15.57;62.29
48390;BME280;34643;47.964;7.982;2022-12-20T05:05:57;97027.91;;;15.60;62.32
48390;BME280;34643;47.964;7.982;2022-12-20T05:10:58;97024.19;;;15.64;62.11
48390;BME280;34643;47.964;7.982;2022-12-20T05:15:58;97022.31;;;15.66;62.12
48390;BME280;34643;47.964;7.982;2022-12-20T05:21:03;97015.97;;;15.70;62.31
48390;BME280;34643;47.964;7.982;2022-12-20T05:26:25;97001.22;;;15.71;62.22
48390;BME280;34643;47.964;7.982;2022-12-20T05:31:28;97004.63;;;15.71;62.28
48390;BME280;34643;47.964;7.982;2022-12-20T05:36:28;97012.34;;;15.73;62.15
48390;BME280;34643;47.964;7.982;2022-12-20T05:41:31;97004.53;;;15.73;62.21
48390;BME280;34643;47.964;7.982;2022-12-20T05:46:32;97002.94;;;15.70;62.15
48390;BME280;34643;47.964;7.982;2022-12-20T05:51:37;97004.63;;;15.71;62.40
48390;BME280;34643;47.964;7.982;2022-12-20T05:56:56;96992.53;;;15.70;62.62
48390;BME280;34643;47.964;7.982;2022-12-20T06:02:05;96987.56;;;15.67;62.66
48390;BME280;34643;47.964;7.982;2022-12-20T06:07:06;96999.84;;;15.65;62.72
48390;BME280;34643;47.964;7.982;2022-12-20T06:12:07;96987.94;;;15.61;62.62
48390;BME280;34643;47.964;7.982;2022-12-20T06:17:08;96988.03;;;15.59;62.61
48390;BME280;34643;47.964;7.982;2022-12-20T06:22:08;96983.03;;;15.56;62.53
48390;BME280;34643;47.964;7.982;2022-12-20T06:27:14;96982.28;;;15.54;62.53
48390;BME280;34643;47.964;7.982;2022-12-20T06:32:16;96985.81;;;15.53;62.48
48390;BME280;34643;47.964;7.982;2022-12-20T06:37:17;96979.03;;;15.51;62.30
48390;BME280;34643;47.964;7.982;2022-12-20T06:42:17;96999.75;;;15.52;62.39
48390;BME280;34643;47.964;7.982;2022-12-20T06:47:19;96995.59;;;15.50;62.50
48390;BME280;34643;47.964;7.982;2022-12-20T06:52:20;96999.22;;;15.47;62.45
48390;BME280;34643;47.964;7.982;2022-12-20T06:57:23;97003.59;;;15.47;62.48
48390;BME280;34643;47.964;7.982;2022-12-20T07:02:24;96998.56;;;15.44;62.59
48390;BME280;34643;47.964;7.982;2022-12-20T07:07:25;97005.69;;;13.48;57.34
48390;BME280;34643;47.964;7.982;2022-12-20T07:12:25;97009.81;;;13.19;55.28
48390;BME280;34643;47.964;7.982;2022-12-20T07:17:26;97000.50;;;13.48;54.62
48390;BME280;34643;47.964;7.982;2022-12-20T07:22:26;96992.13;;;13.59;55.61
48390;BME280;34643;47.964;7.982;2022-12-20T07:27:26;96988.84;;;14.47;56.88
48390;BME280;34643;47.964;7.982;2022-12-20T07:32:26;96985.00;;;14.68;56.45
48390;BME280;34643;47.964;7.982;2022-12-20T07:37:27;96986.41;;;14.74;56.69
48390;BME280;34643;47.964;7.982;2022-12-20T07:42:28;96989.66;;;14.77;56.80
48390;BME280;34643;47.964;7.982;2022-12-20T07:47:28;96998.09;;;14.95;57.34
48390;BME280;34643;47.964;7.982;2022-12-20T07:52:29;96975.00;;;14.91;57.80
48390;BME280;34643;47.964;7.982;2022-12-20T07:57:34;96962.19;;;14.88;57.90
48390;BME280;34643;47.964;7.982;2022-12-20T08:02:47;96950.94;;;14.87;58.16
48390;BME280;34643;47.964;7.982;2022-12-20T08:07:48;96954.38;;;14.88;58.19
48390;BME280;34643;47.964;7.982;2022-12-20T08:12:49;96954.47;;;14.86;58.44
48390;BME280;34643;47.964;7.982;2022-12-20T08:17:49;96954.56;;;14.85;58.61
48390;BME280;34643;47.964;7.982;2022-12-20T08:22:50;96962.25;;;14.86;58.38
48390;BME280;34643;47.964;7.982;2022-12-20T08:27:50;96966.72;;;14.84;58.46
48390;BME280;34643;47.964;7.982;2022-12-20T08:32:50;96959.03;;;14.82;58.78
48390;BME280;34643;47.964;7.982;2022-12-20T08:37:51;96956.41;;;14.82;58.68
48390;BME280;34643;47.964;7.982;2022-12-20T08:42:51;96961.72;;;14.81;58.89
48390;BME280;34643;47.964;7.982;2022-12-20T08:47:52;96961.72;;;14.81;58.73
48390;BME280;34643;47.964;7.982;2022-12-20T08:52:52;96959.09;;;14.81;58.95
48390;BME280;34643;47.964;7.982;2022-12-20T08:57:53;96954.66;;;14.83;58.80
48390;BME280;34643;47.964;7.982;2022-12-20T09:02:53;96944.81;;;14.88;58.63
48390;BME280;34643;47.964;7.982;2022-12-20T09:07:53;96952.03;;;14.97;58.61
48390;BME280;34643;47.964;7.982;2022-12-20T09:12:54;96951.50;;;15.07;58.42
48390;BME280;34643;47.964;7.982;2022-12-20T09:17:54;96947.03;;;15.09;58.37
48390;BME280;34643;47.964;7.982;2022-12-20T09:22:54;96940.22;;;15.06;58.36
48390;BME280;34643;47.964;7.982;2022-12-20T09:27:55;96940.22;;;15.06;58.48
48390;BME280;34643;47.964;7.982;2022-12-20T09:32:55;96937.72;;;15.05;58.54
48390;BME280;34643;47.964;7.982;2022-12-20T09:37:56;96933.38;;;15.05;58.62
48390;BME280;34643;47.964;7.982;2022-12-20T09:42:57;96921.28;;;15.04;58.69
48390;BME280;34643;47.964;7.982;2022-12-20T09:47:58;96915.28;;;15.04;58.58
48390;BME280;34643;47.964;7.982;2022-12-20T09:53:04;96913.69;;;15.01;58.77
48390;BME280;34643;47.964;7.982;2022-12-20T10:03:11;96912.84;;;15.00;58.89
48390;BME280;34643;47.964;7.982;2022-12-20T10:23:43;96885.31;;;14.98;58.77
48390;BME280;34643;47.964;7.982;2022-12-20T10:28:44;96901.00;;;14.96;58.84
48390;BME280;34643;47.964;7.982;2022-12-20T10:33:45;96887.19;;;14.96;58.96
48390;BME280;34643;47.964;7.982;2022-12-20T10:38:46;96894.13;;;14.95;58.84
48390;BME280;34643;47.964;7.982;2022-12-20T10:43:52;96888.19;;;14.93;59.00
48390;BME280;34643;47.964;7.982;2022-12-20T10:48:55;96893.38;;;14.93;59.03
48390;BME280;34643;47.964;7.982;2022-12-20T10:54:00;96902.13;;;14.92;58.89
48390;BME280;34643;47.964;7.982;2022-12-20T10:59:02;96882.34;;;14.90;59.12
48390;BME280;34643;47.964;7.982;2022-12-20T11:04:04;96851.88;;;14.92;59.03
48390;BME280;34643;47.964;7.982;2022-12-20T11:14:17;96818.84;;;14.94;58.97
48390;BME280;34643;47.964;7.982;2022-12-20T11:25:05;96826.16;;;15.01;58.85
48390;BME280;34643;47.964;7.982;2022-12-20T11:30:20;96836.97;;;15.08;58.62
48390;BME280;34643;47.964;7.982;2022-12-20T11:35:24;96836.50;;;15.16;58.51
48390;BME280;34643;47.964;7.982;2022-12-20T11:40:35;96827.03;;;15.15;58.58
48390;BME280;34643;47.964;7.982;2022-12-20T11:55:59;96794.09;;;15.28;58.41
48390;BME280;34643;47.964;7.982;2022-12-20T12:01:07;96779.75;;;15.35;58.34
48390;BME280;34643;47.964;7.982;2022-12-20T12:06:11;96777.38;;;15.45;58.22
48390;BME280;34643;47.964;7.982;2022-12-20T12:11:17;96764.06;;;15.50;58.10
48390;BME280;34643;47.964;7.982;2022-12-20T12:16:23;96753.13;;;15.57;58.16
48390;BME280;34643;47.964;7.982;2022-12-20T12:21:26;96762.53;;;15.60;58.40
48390;BME280;34643;47.964;7.982;2022-12-20T12:26:31;96776.25;;;15.62;58.14
48390;BME280;34643;47.964;7.982;2022-12-20T12:47:10;96741.72;;;15.60;58.49
48390;BME280;34643;47.964;7.982;2022-12-20T12:52:25;96734.72;;;15.61;58.37
48390;BME280;34643;47.964;7.982;2022-12-20T12:57:26;96726.94;;;15.61;58.46
48390;BME280;34643;47.964;7.982;2022-12-20T13:02:32;96728.06;;;15.56;58.53
48390;BME280;34643;47.964;7.982;2022-12-20T13:17:44;96710.25;;;15.63;58.37
48390;BME280;34643;47.964;7.982;2022-12-20T13:43:34;96690.50;;;15.61;58.57
48390;BME280;34643;47.964;7.982;2022-12-20T13:53:46;96686.34;;;15.58;58.63
48390;BME280;34643;47.964;7.982;2022-12-20T13:58:48;96684.69;;;15.57;58.56
48390;BME280;34643;47.964;7.982;2022-12-20T14:03:49;96686.44;;;15.56;58.59
48390;BME280;34643;47.964;7.982;2022-12-20T14:08:50;96682.91;;;15.57;58.54
48390;BME280;34643;47.964;7.982;2022-12-20T14:19:01;96701.97;;;15.58;58.51
48390;BME280;34643;47.964;7.982;2022-12-20T14:24:02;96697.69;;;15.57;58.51
48390;BME280;34643;47.964;7.982;2022-12-20T14:29:03;96705.50;;;15.57;58.63
48390;BME280;34643;47.964;7.982;2022-12-20T14:39:23;96708.63;;;15.62;58.48
48390;BME280;34643;47.964;7.982;2022-12-20T14:44:26;96704.56;;;15.58;58.57
48390;BME280;34643;47.964;7.982;2022-12-20T14:49:27;96698.41;;;15.59;58.54
48390;BME280;34643;47.964;7.982;2022-12-20T14:54:29;96700.28;;;15.57;58.37
48390;BME280;34643;47.964;7.982;2022-12-20T14:59:29;96698.31;;;15.61;58.57
48390;BME280;34643;47.964;7.982;2022-12-20T15:04:33;96692.19;;;15.62;58.35
48390;BME280;34643;47.964;7.982;2022-12-20T15:09:33;96686.13;;;15.61;58.42
48390;BME280;34643;47.964;7.982;2022-12-20T15:14:35;96700.09;;;15.60;58.60
48390;BME280;34643;47.964;7.982;2022-12-20T15:19:36;96701.53;;;15.64;58.53
48390;BME280;34643;47.964;7.982;2022-12-20T15:24:36;96698.19;;;15.62;58.55
48390;BME280;34643;47.964;7.982;2022-12-20T15:29:37;96705.06;;;15.63;58.65
48390;BME280;34643;47.964;7.982;2022-12-20T15:34:37;96698.00;;;15.65;58.52
48390;BME280;34643;47.964;7.982;2022-12-20T15:39:38;96699.84;;;15.63;58.57
48390;BME280;34643;47.964;7.982;2022-12-20T15:44:38;96692.81;;;15.65;58.45
48390;BME280;34643;47.964;7.982;2022-12-20T15:49:38;96697.25;;;15.63;58.55
48390;BME280;34643;47.964;7.982;2022-12-20T15:54:39;96695.50;;;15.64;58.62
48390;BME280;34643;47.964;7.982;2022-12-20T15:59:39;96702.59;;;15.62;58.66
48390;BME280;34643;47.964;7.982;2022-12-20T16:04:40;96700.09;;;15.60;58.50
48390;BME280;34643;47.964;7.982;2022-12-20T16:09:40;96698.41;;;15.59;58.61
48390;BME280;34643;47.964;7.982;2022-12-20T16:14:40;96689.69;;;15.60;58.59
48390;BME280;34643;47.964;7.982;2022-12-20T16:19:41;96671.75;;;15.55;58.66
48390;BME280;34643;47.964;7.982;2022-12-20T16:24:42;96680.41;;;15.56;58.55
48390;BME280;34643;47.964;7.982;2022-12-20T16:29:42;96671.88;;;15.54;58.94
48390;BME280;34643;47.964;7.982;2022-12-20T16:34:43;96655.53;;;15.52;58.73
48390;BME280;34643;47.964;7.982;2022-12-20T16:39:44;96664.28;;;15.51;58.66
48390;BME280;34643;47.964;7.982;2022-12-20T16:44:44;96644.50;;;15.48;58.82
48390;BME280;34643;47.964;7.982;2022-12-20T16:49:44;96643.69;;;15.48;58.76
48390;BME280;34643;47.964;7.982;2022-12-20T16:54:45;96647.31;;;15.45;58.64
48390;BME280;34643;47.964;7.982;2022-12-20T16:59:45;96634.31;;;15.45;58.69
48390;BME280;34643;47.964;7.982;2022-12-20T17:04:45;96627.56;;;15.43;58.75
48390;BME280;34643;47.964;7.982;2022-12-20T17:09:45;96630.16;;;15.43;58.66
48390;BME280;34643;47.964;7.982;2022-12-20T17:14:46;96621.63;;;15.40;58.69
48390;BME280;34643;47.964;7.982;2022-12-20T17:19:46;96619.13;;;15.39;58.29
48390;BME280;34643;47.964;7.982;2022-12-20T17:24:47;96628.72;;;15.38;58.72
48390;BME280;34643;47.964;7.982;2022-12-20T17:29:47;96630.47;;;15.38;58.75
48390;BME280;34643;47.964;7.982;2022-12-20T17:34:49;96640.97;;;15.36;58.70
48390;BME280;34643;47.964;7.982;2022-12-20T17:39:50;96638.50;;;15.35;58.63
48390;BME280;34643;47.964;7.982;2022-12-20T17:44:50;96635.06;;;15.34;58.74
48390;BME280;34643;47.964;7.982;2022-12-20T17:49:50;96630.91;;;15.32;58.68
48390;BME280;34643;47.964;7.982;2022-12-20T17:54:51;96616.13;;;15.32;58.58
48390;BME280;34643;47.964;7.982;2022-12-20T17:59:52;96618.31;;;15.38;58.66
48390;BME280;34643;47.964;7.982;2022-12-20T18:04:52;96630.16;;;15.55;58.38
48390;BME280;34643;47.964;7.982;2022-12-20T18:09:53;96646.56;;;15.56;58.40
48390;BME280;34643;47.964;7.982;2022-12-20T18:14:53;96638.88;;;15.54;58.72
48390;BME280;34643;47.964;7.982;2022-12-20T18:19:53;96641.38;;;15.56;58.72
48390;BME280;34643;47.964;7.982;2022-12-20T18:24:54;96643.97;;;15.56;58.75
48390;BME280;34643;47.964;7.982;2022-12-20T18:29:55;96641.16;;;15.59;58.61
48390;BME280;34643;47.964;7.982;2022-12-20T18:34:55;96625.75;;;15.69;59.28
48390;BME280;34643;47.964;7.982;2022-12-20T18:39:55;96609.59;;;15.89;60.13
48390;BME280;34643;47.964;7.982;2022-12-20T18:44:55;96615.75;;;15.88;60.37
48390;BME280;34643;47.964;7.982;2022-12-20T18:49:56;96614.69;;;15.91;61.08
48390;BME280;34643;47.964;7.982;2022-12-20T18:54:56;96605.72;;;15.95;61.31
48390;BME280;34643;47.964;7.982;2022-12-20T18:59:57;96613.22;;;16.00;61.68
48390;BME280;34643;47.964;7.982;2022-12-20T19:04:57;96609.69;;;16.01;62.19
48390;BME280;34643;47.964;7.982;2022-12-20T19:09:57;96627.06;;;16.00;62.39
48390;BME280;34643;47.964;7.982;2022-12-20T19:14:58;96628.00;;;15.99;62.24
48390;BME280;34643;47.964;7.982;2022-12-20T19:19:58;96637.19;;;15.92;62.46
48390;BME280;34643;47.964;7.982;2022-12-20T19:24:58;96641.75;;;16.01;62.57
48390;BME280;34643;47.964;7.982;2022-12-20T19:29:58;96654.41;;;16.06;62.48
48390;BME280;34643;47.964;7.982;2022-12-20T19:34:59;96661.91;;;16.10;62.57
48390;BME280;34643;47.964;7.982;2022-12-20T19:39:59;96652.94;;;16.14;62.37
48390;BME280;34643;47.964;7.982;2022-12-20T19:44:59;96652.94;;;16.14;62.37
48390;BME280;34643;47.964;7.982;2022-12-20T19:50:00;96646.78;;;16.15;62.49
48390;BME280;34643;47.964;7.982;2022-12-20T19:55:00;96649.50;;;16.14;62.42
48390;BME280;34643;47.964;7.982;2022-12-20T20:00:00;96659.00;;;16.15;62.51
48390;BME280;34643;47.964;7.982;2022-12-20T20:05:00;96656.25;;;16.16;62.78
48390;BME280;34643;47.964;7.982;2022-12-20T20:10:01;96660.03;;;16.12;62.61
48390;BME280;34643;47.964;7.982;2022-12-20T20:15:01;96654.00;;;16.12;62.55
48390;BME280;34643;47.964;7.982;2022-12-20T20:20:02;96652.94;;;16.14;62.62
48390;BME280;34643;47.964;7.982;2022-12-20T20:25:02;96647.22;;;16.09;62.49
48390;BME280;34643;47.964;7.982;2022-12-20T20:30:03;96656.25;;;16.16;62.43
48390;BME280;34643;47.964;7.982;2022-12-20T20:35:03;96656.38;;;16.15;62.71
48390;BME280;34643;47.964;7.982;2022-12-20T20:40:04;96652.09;;;16.14;62.63
48390;BME280;34643;47.964;7.982;2022-12-20T20:45:04;96649.19;;;16.19;62.59
48390;BME280;34643;47.964;7.982;2022-12-20T20:50:05;96659.59;;;16.19;62.77
48390;BME280;34643;47.964;7.982;2022-12-20T20:55:06;96661.34;;;16.18;62.55
48390;BME280;34643;47.964;7.982;2022-12-20T21:00:06;96673.56;;;16.18;62.83
48390;BME280;34643;47.964;7.982;2022-12-20T21:05:07;96661.47;;;16.16;62.65
48390;BME280;34643;47.964;7.982;2022-12-20T21:10:07;96661.03;;;16.23;62.68
48390;BME280;34643;47.964;7.982;2022-12-20T21:15:08;96655.22;;;16.19;62.54
48390;BME280;34643;47.964;7.982;2022-12-20T21:20:09;96640.41;;;16.20;62.73
48390;BME280;34643;47.964;7.982;2022-12-20T21:25:09;96636.16;;;16.19;62.87
48390;BME280;34643;47.964;7.982;2022-12-20T21:30:09;96632.19;;;16.26;62.60
48390;BME280;34643;47.964;7.982;2022-12-20T21:35:10;96644.25;;;16.27;63.01
48390;BME280;34643;47.964;7.982;2022-12-20T21:40:10;96641.88;;;16.24;62.83
48390;BME280;34643;47.964;7.982;2022-12-20T21:45:11;96636.69;;;16.24;62.67
48390;BME280;34643;47.964;7.982;2022-12-20T21:50:11;96645.41;;;16.23;62.58
48390;BME280;34643;47.964;7.982;2022-12-20T21:55:13;96630.63;;;16.23;62.79
48390;BME280;34643;47.964;7.982;2022-12-20T22:00:14;96631.69;;;16.21;63.04
48390;BME280;34643;47.964;7.982;2022-12-20T22:05:14;96633.56;;;16.19;62.80
48390;BME280;34643;47.964;7.982;2022-12-20T22:10:14;96643.22;;;16.16;63.12
48390;BME280;34643;47.964;7.982;2022-12-20T22:15:15;96629.38;;;16.16;63.29
48390;BME280;34643;47.964;7.982;2022-12-20T22:20:15;96629.91;;;16.21;63.28
48390;BME280;34643;47.964;7.982;2022-12-20T22:25:15;96639.59;;;16.19;63.24
48390;BME280;34643;47.964;7.982;2022-12-20T22:30:16;96649.41;;;16.15;63.38
48390;BME280;34643;47.964;7.982;2022-12-20T22:35:16;96653.66;;;16.16;63.73
48390;BME280;34643;47.964;7.982;2022-12-20T22:40:19;96642.41;;;16.16;63.71
48390;BME280;34643;47.964;7.982;2022-12-20T22:45:20;96647.50;;;16.18;63.54
48390;BME280;34643;47.964;7.982;2022-12-20T22:50:20;96647.50;;;16.18;63.58
48390;BME280;34643;47.964;7.982;2022-12-20T22:55:20;96655.22;;;16.19;63.84
48390;BME280;34643;47.964;7.982;2022-12-20T23:00:20;96646.78;;;16.15;63.52
48390;BME280;34643;47.964;7.982;2022-12-20T23:05:21;96656.25;;;16.16;63.81
48390;BME280;34643;47.964;7.982;2022-12-20T23:10:21;96651.03;;;16.16;63.97
48390;BME280;34643;47.964;7.982;2022-12-20T23:15:40;96668.25;;;16.19;63.45
48390;BME280;34643;47.964;7.982;2022-12-20T23:20:40;96679.47;;;16.20;63.62
48390;BME280;34643;47.964;7.982;2022-12-20T23:26:13;96660.31;;;16.21;63.63
48390;BME280;34643;47.964;7.982;2022-12-20T23:31:13;96670.53;;;16.24;63.88
48390;BME280;34643;47.964;7.982;2022-12-20T23:36:14;96666.75;;;16.28;63.50
48390;BME280;34643;47.964;7.982;2022-12-20T23:41:14;96680.81;;;16.25;63.46
48390;BME280;34643;47.964;7.982;2022-12-20T23:46:15;96674.69;;;16.26;63.73
48390;BME280;34643;47.964;7.982;2022-12-20T23:51:16;96677.19;;;16.28;63.30
48390;BME280;34643;47.964;7.982;2022-12-20T23:56:18;96662.56;;;16.25;63.10
